createdAt,value
2023-01-18T00:01:46.745Z,62.44
2023-01-18T00:03:48.802Z,62.79
2023-01-18T00:05:50.957Z,62.55
2023-01-18T00:07:53.347Z,62.71
2023-01-18T00:09:56.713Z,62.91
2023-01-18T00:11:58.509Z,62.99
2023-01-18T00:14:02.676Z,62.97
2023-01-18T00:16:05.933Z,63.11
2023-01-18T00:18:07.761Z,62.63
2023-01-18T00:20:11.714Z,62.44
2023-01-18T00:22:13.452Z,62.86
2023-01-18T00:24:15.266Z,62.98
2023-01-18T00:26:17.240Z,62.80
2023-01-18T00:28:23.029Z,63.30
2023-01-18T00:30:27.570Z,63.30
2023-01-18T00:32:29.258Z,62.99
2023-01-18T00:34:31.631Z,62.62
2023-01-18T00:36:34.175Z,62.17
2023-01-18T00:38:35.960Z,62.30
2023-01-18T00:40:37.666Z,61.94
2023-01-18T00:42:58.743Z,62.12
2023-01-18T00:45:01.005Z,62.15
2023-01-18T00:47:02.809Z,62.12
2023-01-18T00:49:04.570Z,61.99
2023-01-18T00:51:10.888Z,62.02
2023-01-18T00:53:12.614Z,61.68
2023-01-18T00:55:16.243Z,61.75
2023-01-18T00:57:18.013Z,61.78
2023-01-18T00:59:19.736Z,61.63
2023-01-18T01:01:21.817Z,61.80
2023-01-18T01:03:23.597Z,61.58
2023-01-18T01:05:45.863Z,61.69
2023-01-18T01:07:49.373Z,61.61
2023-01-18T01:09:51.564Z,61.61
2023-01-18T01:12:12.912Z,61.77
2023-01-18T01:14:33.214Z,61.75
2023-01-18T01:16:53.625Z,61.56
2023-01-18T01:19:14.804Z,61.37
2023-01-18T01:21:35.094Z,62.03
2023-01-18T01:23:55.284Z,61.88
2023-01-18T01:26:11.102Z,61.87
2023-01-18T01:28:12.897Z,61.54
2023-01-18T01:30:14.824Z,61.67
2023-01-18T01:32:16.604Z,61.18
2023-01-18T01:34:18.418Z,61.64
2023-01-18T01:36:25.935Z,61.61
2023-01-18T01:38:28.479Z,61.68
2023-01-18T01:40:30.447Z,61.82
2023-01-18T01:42:32.416Z,61.35
2023-01-18T01:44:42.635Z,61.87
2023-01-18T01:46:44.351Z,61.59
2023-01-18T01:48:48.108Z,61.69
2023-01-18T01:50:50.026Z,61.99
2023-01-18T01:52:52.232Z,61.78
2023-01-18T01:55:02.484Z,62.41
2023-01-18T01:57:12.482Z,62.18
2023-01-18T01:59:15.083Z,61.93
2023-01-18T02:01:16.892Z,61.52
2023-01-18T02:03:19.351Z,61.62
2023-01-18T02:05:21.490Z,61.55
2023-01-18T02:07:26.432Z,61.52
2023-01-18T02:09:28.175Z,61.51
2023-01-18T02:11:30.075Z,61.33
2023-01-18T02:13:32.079Z,61.04
2023-01-18T02:15:44.851Z,60.90
2023-01-18T02:18:11.229Z,61.04
2023-01-18T02:20:40.722Z,60.74
2023-01-18T02:23:08.549Z,60.46
2023-01-18T02:25:47.679Z,60.56
2023-01-18T02:28:07.199Z,60.80
2023-01-18T02:30:08.995Z,60.58
2023-01-18T02:32:22.763Z,60.64
2023-01-18T02:34:47.512Z,60.67
2023-01-18T02:37:16.914Z,60.55
2023-01-18T02:39:38.354Z,60.41
2023-01-18T02:42:06.954Z,60.38
2023-01-18T02:44:27.496Z,60.01
2023-01-18T02:46:35.528Z,60.16
2023-01-18T02:48:43.310Z,60.45
2023-01-18T02:50:45.134Z,60.25
2023-01-18T02:52:47.401Z,60.37
2023-01-18T02:54:49.279Z,60.55
2023-01-18T02:56:53.845Z,61.04
2023-01-18T02:59:13.230Z,60.87
2023-01-18T03:01:30.864Z,61.18
2023-01-18T03:03:33.780Z,60.66
2023-01-18T03:05:37.242Z,61.16
2023-01-18T03:07:50.834Z,61.09
2023-01-18T03:09:53.795Z,61.08
2023-01-18T03:12:08.757Z,61.67
2023-01-18T03:14:32.244Z,61.46
2023-01-18T03:16:58.286Z,61.34
2023-01-18T03:19:28.301Z,62.02
2023-01-18T03:21:35.811Z,61.79
2023-01-18T03:23:42.492Z,61.50
2023-01-18T03:25:48.062Z,61.31
2023-01-18T03:28:11.691Z,61.04
2023-01-18T03:30:33.004Z,61.37
2023-01-18T03:32:54.045Z,61.58
2023-01-18T03:35:08.063Z,61.62
2023-01-18T03:37:14.238Z,61.46
2023-01-18T03:39:28.321Z,61.49
2023-01-18T03:41:33.755Z,61.13
2023-01-18T03:43:37.891Z,60.86
2023-01-18T03:45:45.028Z,60.88
2023-01-18T03:47:50.436Z,60.50
2023-01-18T03:49:52.272Z,60.36
2023-01-18T03:52:06.185Z,60.48
2023-01-18T03:54:20.984Z,60.54
2023-01-18T03:56:39.136Z,60.29
2023-01-18T03:58:42.277Z,60.46
2023-01-18T04:00:44.503Z,60.20
2023-01-18T04:02:48.951Z,60.26
2023-01-18T04:04:55.224Z,60.00
2023-01-18T04:06:58.045Z,59.49
2023-01-18T04:09:01.126Z,59.64
2023-01-18T04:11:02.869Z,59.20
2023-01-18T04:13:04.736Z,59.09
2023-01-18T04:15:07.089Z,58.78
2023-01-18T04:17:08.907Z,58.77
2023-01-18T04:19:10.877Z,59.16
2023-01-18T04:21:12.672Z,59.04
2023-01-18T04:23:14.981Z,59.02
2023-01-18T04:25:16.800Z,58.89
2023-01-18T04:27:18.568Z,58.91
2023-01-18T04:29:20.340Z,58.69
2023-01-18T04:31:22.596Z,58.65
2023-01-18T04:33:26.898Z,58.45
2023-01-18T04:35:28.753Z,58.43
2023-01-18T04:37:31.229Z,58.59
2023-01-18T04:39:32.988Z,58.15
2023-01-18T04:41:35.020Z,58.38
2023-01-18T04:43:36.752Z,58.27
2023-01-18T04:45:38.519Z,58.21
2023-01-18T04:47:40.200Z,57.67
2023-01-18T04:49:41.939Z,57.81
2023-01-18T04:51:45.317Z,57.68
2023-01-18T04:53:47.834Z,57.39
2023-01-18T04:55:49.787Z,57.00
2023-01-18T04:57:59.304Z,56.79
2023-01-18T05:00:02.287Z,56.81
2023-01-18T05:02:04.540Z,56.94
2023-01-18T05:04:06.340Z,56.91
2023-01-18T05:06:10.635Z,56.47
2023-01-18T05:08:12.436Z,57.10
2023-01-18T05:10:14.501Z,56.81
2023-01-18T05:12:16.289Z,56.69
2023-01-18T05:14:18.121Z,56.86
2023-01-18T05:16:22.469Z,56.53
2023-01-18T05:18:24.599Z,56.63
2023-01-18T05:20:26.399Z,56.61
2023-01-18T05:22:29.147Z,56.58
2023-01-18T05:24:30.923Z,56.59
2023-01-18T05:26:32.740Z,56.55
2023-01-18T05:28:35.011Z,56.04
2023-01-18T05:30:42.225Z,55.71
2023-01-18T05:32:43.883Z,56.06
2023-01-18T05:34:45.712Z,55.78
2023-01-18T05:36:48.352Z,55.86
2023-01-18T05:38:50.251Z,55.72
2023-01-18T05:40:54.228Z,55.49
2023-01-18T05:42:56.058Z,55.59
2023-01-18T05:44:58.196Z,55.44
2023-01-18T05:46:59.923Z,55.67
2023-01-18T05:49:01.862Z,55.60
2023-01-18T05:51:11.266Z,55.21
2023-01-18T05:53:16.987Z,55.21
2023-01-18T05:55:19.154Z,55.16
2023-01-18T05:57:21.051Z,55.10
2023-01-18T05:59:22.814Z,55.55
2023-01-18T06:01:25.144Z,54.98
2023-01-18T06:03:26.960Z,55.36
2023-01-18T06:05:29.062Z,55.08
2023-01-18T06:07:30.813Z,55.45
2023-01-18T06:09:32.525Z,55.20
2023-01-18T06:11:34.331Z,55.40
2023-01-18T06:13:36.403Z,55.44
2023-01-18T06:15:38.267Z,55.77
2023-01-18T06:17:40.506Z,55.63
2023-01-18T06:19:42.244Z,55.56
2023-01-18T06:21:43.989Z,55.92
2023-01-18T06:23:46.107Z,55.67
2023-01-18T06:25:47.811Z,55.69
2023-01-18T06:27:49.572Z,56.02
2023-01-18T06:29:51.353Z,56.39
2023-01-18T06:31:53.202Z,56.88
2023-01-18T06:33:55.033Z,57.06
2023-01-18T06:35:56.790Z,57.13
2023-01-18T06:37:58.992Z,56.95
2023-01-18T06:40:02.782Z,57.08
2023-01-18T06:42:06.116Z,56.98
2023-01-18T06:44:08.019Z,56.81
2023-01-18T06:46:11.898Z,56.93
2023-01-18T06:48:15.880Z,56.99
2023-01-18T06:50:17.954Z,57.02
2023-01-18T06:52:19.956Z,57.08
2023-01-18T06:54:21.999Z,57.40
2023-01-18T06:56:25.203Z,57.67
2023-01-18T06:58:28.351Z,58.09
2023-01-18T07:00:30.405Z,57.85
2023-01-18T07:02:36.658Z,58.65
2023-01-18T07:04:44.425Z,58.62
2023-01-18T07:06:46.762Z,58.75
2023-01-18T07:08:49.726Z,58.84
2023-01-18T07:10:55.618Z,59.04
2023-01-18T07:12:58.168Z,58.72
2023-01-18T07:15:04.890Z,58.75
2023-01-18T07:17:11.886Z,58.58
2023-01-18T07:19:15.289Z,58.81
2023-01-18T07:21:19.404Z,59.19
2023-01-18T07:23:21.883Z,58.83
2023-01-18T07:25:23.824Z,58.81
2023-01-18T07:27:27.028Z,58.85
2023-01-18T07:29:29.109Z,58.87
2023-01-18T07:31:31.508Z,58.74
2023-01-18T07:33:34.921Z,58.45
2023-01-18T07:35:37.240Z,58.98
2023-01-18T07:37:42.506Z,58.86
2023-01-18T07:39:44.472Z,59.13
2023-01-18T07:41:47.071Z,58.80
2023-01-18T07:43:54.229Z,59.66
2023-01-18T07:45:58.263Z,59.88
2023-01-18T07:48:00.930Z,59.72
2023-01-18T07:50:02.928Z,60.48
2023-01-18T07:52:05.172Z,61.26
2023-01-18T07:54:07.422Z,61.03
2023-01-18T07:56:13.886Z,61.34
2023-01-18T07:58:17.100Z,61.69
2023-01-18T08:00:19.891Z,62.07
2023-01-18T08:02:21.916Z,61.71
2023-01-18T08:04:25.070Z,61.24
2023-01-18T08:06:27.583Z,61.49
2023-01-18T08:08:32.576Z,62.58
2023-01-18T08:10:37.617Z,61.83
2023-01-18T08:12:39.602Z,61.48
2023-01-18T08:14:41.513Z,61.90
2023-01-18T08:16:43.744Z,62.15
2023-01-18T08:18:48.979Z,61.55
2023-01-18T08:20:51.054Z,61.21
2023-01-18T08:22:57.800Z,60.82
2023-01-18T08:24:59.997Z,60.83
2023-01-18T08:27:02.468Z,60.64
2023-01-18T08:29:04.592Z,61.46
2023-01-18T08:31:17.766Z,60.95
2023-01-18T08:33:19.733Z,60.65
2023-01-18T08:35:23.749Z,61.08
2023-01-18T08:37:25.934Z,61.56
2023-01-18T08:39:28.194Z,61.68
2023-01-18T08:41:30.780Z,62.51
2023-01-18T08:43:33.207Z,62.51
2023-01-18T08:45:35.532Z,62.68
2023-01-18T08:47:38.181Z,62.89
2023-01-18T08:49:42.802Z,63.00
2023-01-18T08:51:45.131Z,62.48
2023-01-18T08:53:47.793Z,62.81
2023-01-18T08:55:50.201Z,62.43
2023-01-18T08:57:56.605Z,62.48
2023-01-18T08:59:59.073Z,62.32
2023-01-18T09:02:01.165Z,62.52
2023-01-18T09:04:03.272Z,62.04
2023-01-18T09:06:12.528Z,61.78
2023-01-18T09:08:15.090Z,61.80
2023-01-18T09:10:17.342Z,61.15
2023-01-18T09:12:20.007Z,61.06
2023-01-18T09:14:22.079Z,61.22
2023-01-18T09:16:24.410Z,60.86
2023-01-18T09:18:26.563Z,61.48
2023-01-18T09:20:28.697Z,61.24
2023-01-18T09:22:30.701Z,61.75
2023-01-18T09:24:33.131Z,61.49
2023-01-18T09:26:35.151Z,61.74
2023-01-18T09:28:37.161Z,61.64
2023-01-18T09:30:39.695Z,61.72
2023-01-18T09:32:42.529Z,61.74
2023-01-18T09:34:46.521Z,62.16
2023-01-18T09:36:52.920Z,62.33
2023-01-18T09:38:56.088Z,62.69
2023-01-18T09:40:59.112Z,62.58
2023-01-18T09:43:01.317Z,62.30
2023-01-18T09:45:04.058Z,62.90
2023-01-18T09:47:25.407Z,62.95
2023-01-18T09:49:40.837Z,62.68
2023-01-18T09:52:00.891Z,62.94
2023-01-18T09:54:28.691Z,62.98
2023-01-18T09:56:53.915Z,62.91
2023-01-18T09:59:21.050Z,62.96
2023-01-18T10:01:27.940Z,62.99
2023-01-18T10:03:42.136Z,63.26
2023-01-18T10:06:09.081Z,63.11
2023-01-18T10:08:16.724Z,63.00
2023-01-18T10:10:24.887Z,62.77
2023-01-18T10:12:56.605Z,63.14
2023-01-18T10:15:17.652Z,63.23
2023-01-18T10:17:26.342Z,62.92
2023-01-18T10:19:31.561Z,62.56
2023-01-18T10:21:56.908Z,63.17
2023-01-18T10:24:29.232Z,62.73
2023-01-18T10:26:32.935Z,62.76
2023-01-18T10:28:53.578Z,63.41
2023-01-18T10:31:30.056Z,63.95
2023-01-18T10:33:36.291Z,63.21
2023-01-18T10:35:45.519Z,63.71
2023-01-18T10:37:47.961Z,63.56
2023-01-18T10:40:15.306Z,64.11
2023-01-18T10:42:34.278Z,64.00
2023-01-18T10:44:36.256Z,63.60
2023-01-18T10:46:39.256Z,63.39
2023-01-18T10:48:46.311Z,63.92
2023-01-18T10:50:53.342Z,63.69
2023-01-18T10:52:55.709Z,63.60
2023-01-18T10:55:03.926Z,63.81
2023-01-18T10:57:21.877Z,63.73
2023-01-18T10:59:26.602Z,63.65
2023-01-18T11:01:33.585Z,63.95
2023-01-18T11:03:45.484Z,63.79
2023-01-18T11:05:47.905Z,63.44
2023-01-18T11:08:12.598Z,63.58
2023-01-18T11:10:33.004Z,63.55
2023-01-18T11:12:43.171Z,63.88
2023-01-18T11:14:45.520Z,63.44
2023-01-18T11:17:02.875Z,63.99
2023-01-18T11:19:16.843Z,63.74
2023-01-18T11:21:19.218Z,63.62
2023-01-18T11:23:31.317Z,64.26
2023-01-18T11:25:51.919Z,64.51
2023-01-18T11:28:02.229Z,64.04
2023-01-18T11:30:05.344Z,63.82
2023-01-18T11:32:18.161Z,63.90
2023-01-18T11:34:33.647Z,63.66
2023-01-18T11:36:45.601Z,63.92
2023-01-18T11:38:48.332Z,63.86
2023-01-18T11:41:03.389Z,64.21
2023-01-18T11:43:17.653Z,64.03
2023-01-18T11:45:25.273Z,63.85
2023-01-18T11:47:57.704Z,63.98
2023-01-18T11:50:28.579Z,63.96
2023-01-18T11:52:54.018Z,63.70
2023-01-18T11:55:01.592Z,63.69
2023-01-18T11:57:04.769Z,63.73
2023-01-18T11:59:26.256Z,63.16
2023-01-18T12:01:33.917Z,62.98
2023-01-18T12:03:48.658Z,62.75
2023-01-18T12:06:20.406Z,62.76
2023-01-18T12:08:46.471Z,62.74
2023-01-18T12:11:22.489Z,62.98
2023-01-18T12:13:46.957Z,62.84
2023-01-18T12:16:04.748Z,63.06
2023-01-18T12:18:46.542Z,63.50
2023-01-18T12:21:09.491Z,62.69
2023-01-18T12:23:55.630Z,62.57
2023-01-18T12:26:11.753Z,62.23
2023-01-18T12:28:35.517Z,61.47
2023-01-18T12:31:03.235Z,61.41
2023-01-18T12:33:13.213Z,61.62
2023-01-18T12:35:52.871Z,61.63
2023-01-18T12:38:15.588Z,61.10
2023-01-18T12:40:42.420Z,60.73
2023-01-18T12:42:56.251Z,60.18
2023-01-18T12:45:12.514Z,60.17
2023-01-18T12:47:17.550Z,59.65
2023-01-18T12:49:24.641Z,60.06
2023-01-18T12:51:32.860Z,59.58
2023-01-18T12:53:48.806Z,59.09
2023-01-18T12:55:54.158Z,59.57
2023-01-18T12:58:00.534Z,59.70
2023-01-18T13:00:19.202Z,58.94
2023-01-18T13:02:32.227Z,59.15
2023-01-18T13:04:46.566Z,58.93
2023-01-18T13:06:57.282Z,58.98
2023-01-18T13:09:15.576Z,58.79
2023-01-18T13:11:27.709Z,59.04
2023-01-18T13:13:31.098Z,59.38
2023-01-18T13:15:53.831Z,58.38
2023-01-18T13:18:15.542Z,58.78
2023-01-18T13:20:24.810Z,58.59
2023-01-18T13:22:54.551Z,58.72
2023-01-18T13:25:18.548Z,58.82
2023-01-18T13:27:21.919Z,58.96
2023-01-18T13:29:30.095Z,58.77
2023-01-18T13:31:32.965Z,58.23
2023-01-18T13:33:42.263Z,58.27
2023-01-18T13:35:58.320Z,57.71
2023-01-18T13:38:11.794Z,58.57
2023-01-18T13:40:38.466Z,57.92
2023-01-18T13:42:40.796Z,58.78
2023-01-18T13:44:46.325Z,58.29
2023-01-18T13:46:48.794Z,58.65
2023-01-18T13:48:55.674Z,58.31
2023-01-18T13:50:57.844Z,58.96
2023-01-18T13:53:22.113Z,58.41
2023-01-18T13:55:26.746Z,58.64
2023-01-18T13:57:31.450Z,58.89
2023-01-18T13:59:41.013Z,58.96
2023-01-18T14:01:48.018Z,58.96
2023-01-18T14:03:52.147Z,58.98
2023-01-18T14:05:57.326Z,59.31
2023-01-18T14:08:02.270Z,59.79
2023-01-18T14:10:08.465Z,59.54
2023-01-18T14:12:12.193Z,59.52
2023-01-18T14:14:16.201Z,59.30
2023-01-18T14:16:23.294Z,59.08
2023-01-18T14:18:28.317Z,59.19
2023-01-18T14:20:48.248Z,59.04
2023-01-18T14:23:27.569Z,58.78
2023-01-18T14:25:32.523Z,59.48
2023-01-18T14:27:40.424Z,59.27
2023-01-18T14:30:12.632Z,58.96
2023-01-18T14:32:27.676Z,58.78
2023-01-18T14:34:30.282Z,59.68
2023-01-18T14:36:36.410Z,59.49
2023-01-18T14:38:40.311Z,59.57
2023-01-18T14:40:44.084Z,59.61
2023-01-18T14:43:00.055Z,59.19
2023-01-18T14:45:05.006Z,58.96
2023-01-18T14:47:23.972Z,59.65
2023-01-18T14:49:37.784Z,59.30
2023-01-18T14:51:48.966Z,59.17
2023-01-18T14:54:06.185Z,59.47
2023-01-18T14:56:14.520Z,59.49
2023-01-18T14:58:18.722Z,60.05
2023-01-18T15:00:21.745Z,59.99
2023-01-18T15:02:27.904Z,59.77
2023-01-18T15:04:34.153Z,59.57
2023-01-18T15:06:44.638Z,59.74
2023-01-18T15:08:48.173Z,59.71
2023-01-18T15:10:50.209Z,59.84
2023-01-18T15:12:56.970Z,59.56
2023-01-18T15:15:06.895Z,59.58
2023-01-18T15:17:12.233Z,59.58
2023-01-18T15:19:36.993Z,59.51
2023-01-18T15:21:39.166Z,59.81
2023-01-18T15:23:43.619Z,59.57
2023-01-18T15:25:53.806Z,59.33
2023-01-18T15:28:01.971Z,59.43
2023-01-18T15:30:13.562Z,59.49
2023-01-18T15:32:22.084Z,59.51
2023-01-18T15:34:31.129Z,59.04
2023-01-18T15:36:33.696Z,59.40
2023-01-18T15:38:36.661Z,58.87
2023-01-18T15:40:52.255Z,59.33
2023-01-18T15:43:09.496Z,59.83
2023-01-18T15:45:31.977Z,58.70
2023-01-18T15:47:36.995Z,59.35
2023-01-18T15:49:44.015Z,59.33
2023-01-18T15:51:53.212Z,59.56
2023-01-18T15:53:56.648Z,59.47
2023-01-18T15:56:04.995Z,59.32
2023-01-18T15:58:13.539Z,59.12
2023-01-18T16:00:30.479Z,59.03
2023-01-18T16:02:33.392Z,59.67
2023-01-18T16:04:40.692Z,59.43
2023-01-18T16:06:45.666Z,59.50
2023-01-18T16:09:12.750Z,59.21
2023-01-18T16:11:41.518Z,59.20
2023-01-18T16:13:44.032Z,59.38
2023-01-18T16:16:09.571Z,59.27
2023-01-18T16:18:14.479Z,59.28
2023-01-18T16:20:17.411Z,59.43
2023-01-18T16:22:26.443Z,58.91
2023-01-18T16:24:47.052Z,58.78
2023-01-18T16:26:49.480Z,59.35
2023-01-18T16:28:52.095Z,59.28
2023-01-18T16:30:55.195Z,59.16
2023-01-18T16:33:10.280Z,59.46
2023-01-18T16:35:23.960Z,59.75
2023-01-18T16:37:26.250Z,59.87
2023-01-18T16:39:28.618Z,60.25
2023-01-18T16:41:32.383Z,59.75
2023-01-18T16:43:35.738Z,59.44
2023-01-18T16:45:39.092Z,59.48
2023-01-18T16:47:41.346Z,59.44
2023-01-18T16:49:44.383Z,59.30
2023-01-18T16:51:48.185Z,59.38
2023-01-18T16:53:51.094Z,59.51
2023-01-18T16:55:53.134Z,59.30
2023-01-18T16:57:55.292Z,59.31
2023-01-18T16:59:57.532Z,59.68
2023-01-18T17:01:59.902Z,59.61
2023-01-18T17:04:02.792Z,59.79
2023-01-18T17:06:05.193Z,59.61
2023-01-18T17:08:14.314Z,59.56
2023-01-18T17:10:26.500Z,59.60
2023-01-18T17:12:28.658Z,59.97
2023-01-18T17:14:30.894Z,59.84
2023-01-18T17:16:34.136Z,59.75
2023-01-18T17:18:36.534Z,59.86
2023-01-18T17:20:38.474Z,59.89
2023-01-18T17:22:40.826Z,59.98
2023-01-18T17:24:43.606Z,60.12
2023-01-18T17:26:48.886Z,60.25
2023-01-18T17:28:50.989Z,60.12
2023-01-18T17:30:53.477Z,60.58
2023-01-18T17:32:55.815Z,60.78
2023-01-18T17:34:58.297Z,60.50
2023-01-18T17:37:03.038Z,60.53
2023-01-18T17:39:06.558Z,60.89
2023-01-18T17:41:19.552Z,60.69
2023-01-18T17:43:34.238Z,60.61
2023-01-18T17:45:36.712Z,60.67
2023-01-18T17:47:41.355Z,60.97
2023-01-18T17:49:43.475Z,60.97
2023-01-18T17:51:46.089Z,60.62
2023-01-18T17:53:50.709Z,60.63
2023-01-18T17:55:52.882Z,60.43
2023-01-18T17:57:56.448Z,60.82
2023-01-18T17:59:58.652Z,60.73
2023-01-18T18:02:00.743Z,60.79
2023-01-18T18:04:03.038Z,60.40
2023-01-18T18:06:06.088Z,60.54
2023-01-18T18:08:09.142Z,60.50
2023-01-18T18:10:11.555Z,60.25
2023-01-18T18:12:14.149Z,60.22
2023-01-18T18:14:19.283Z,60.54
2023-01-18T18:16:23.941Z,60.47
2023-01-18T18:18:26.451Z,60.00
2023-01-18T18:20:28.690Z,60.44
2023-01-18T18:22:37.395Z,60.09
2023-01-18T18:24:39.811Z,60.39
2023-01-18T18:26:41.907Z,60.62
2023-01-18T18:28:44.201Z,60.09
2023-01-18T18:30:49.062Z,60.24
2023-01-18T18:32:51.151Z,60.07
2023-01-18T18:34:53.076Z,60.17
2023-01-18T18:36:55.622Z,60.49
2023-01-18T18:39:01.848Z,60.88
2023-01-18T18:41:06.417Z,60.66
2023-01-18T18:43:09.313Z,60.92
2023-01-18T18:45:12.071Z,60.75
2023-01-18T18:47:14.203Z,60.92
2023-01-18T18:49:16.485Z,60.94
2023-01-18T18:51:19.450Z,60.58
2023-01-18T18:53:29.651Z,60.78
2023-01-18T18:55:39.475Z,60.77
2023-01-18T18:57:41.830Z,60.93
2023-01-18T18:59:43.908Z,61.02
2023-01-18T19:01:46.330Z,60.85
2023-01-18T19:03:49.589Z,61.03
2023-01-18T19:05:52.098Z,60.71
2023-01-18T19:07:54.523Z,60.65
2023-01-18T19:09:56.669Z,61.10
2023-01-18T19:12:01.315Z,60.96
2023-01-18T19:14:03.516Z,61.04
2023-01-18T19:16:06.726Z,60.80
2023-01-18T19:18:08.807Z,61.32
2023-01-18T19:20:14.079Z,61.43
2023-01-18T19:22:16.389Z,61.38
2023-01-18T19:24:18.764Z,61.27
2023-01-18T19:26:20.964Z,61.07
2023-01-18T19:28:23.434Z,60.82
2023-01-18T19:30:26.056Z,61.17
2023-01-18T19:32:28.876Z,60.83
2023-01-18T19:34:31.090Z,60.88
2023-01-18T19:36:34.373Z,60.97
2023-01-18T19:38:45.767Z,60.68
2023-01-18T19:40:48.967Z,60.39
2023-01-18T19:42:54.733Z,60.17
2023-01-18T19:44:59.323Z,60.53
2023-01-18T19:47:02.166Z,60.42
2023-01-18T19:49:04.858Z,60.39
2023-01-18T19:51:22.151Z,60.01
2023-01-18T19:53:24.738Z,60.06
2023-01-18T19:55:27.624Z,59.86
2023-01-18T19:57:30.051Z,59.89
2023-01-18T19:59:32.193Z,59.57
2023-01-18T20:01:37.149Z,59.53
2023-01-18T20:03:40.239Z,58.99
2023-01-18T20:05:44.715Z,58.59
2023-01-18T20:07:47.103Z,58.39
2023-01-18T20:09:49.407Z,58.42
2023-01-18T20:11:51.671Z,59.04
2023-01-18T20:13:53.865Z,58.66
2023-01-18T20:15:56.222Z,58.71
2023-01-18T20:18:01.672Z,58.56
2023-01-18T20:20:08.375Z,58.07
2023-01-18T20:22:10.987Z,57.84
2023-01-18T20:24:13.000Z,57.71
2023-01-18T20:26:22.134Z,57.60
2023-01-18T20:28:29.822Z,57.14
2023-01-18T20:30:32.428Z,57.03
2023-01-18T20:32:34.698Z,56.62
2023-01-18T20:34:37.161Z,56.29
2023-01-18T20:36:39.408Z,56.08
2023-01-18T20:38:42.313Z,55.92
2023-01-18T20:40:44.357Z,56.39
2023-01-18T20:42:46.746Z,55.90
2023-01-18T20:44:53.840Z,55.73
2023-01-18T20:46:57.521Z,56.02
2023-01-18T20:48:59.738Z,55.89
2023-01-18T20:51:01.940Z,55.70
2023-01-18T20:53:04.232Z,55.35
2023-01-18T20:55:07.062Z,55.43
2023-01-18T20:57:09.763Z,55.60
2023-01-18T20:59:12.522Z,56.95
2023-01-18T21:01:15.768Z,57.04
2023-01-18T21:03:18.329Z,56.96
2023-01-18T21:05:20.596Z,57.25
2023-01-18T21:07:22.862Z,57.22
2023-01-18T21:09:25.819Z,57.45
2023-01-18T21:11:31.876Z,57.53
2023-01-18T21:13:34.075Z,57.09
2023-01-18T21:15:38.183Z,57.54
2023-01-18T21:17:40.130Z,57.33
2023-01-18T21:19:47.774Z,57.43
2023-01-18T21:21:49.784Z,57.61
2023-01-18T21:23:51.805Z,57.65
2023-01-18T21:25:58.668Z,57.58
2023-01-18T21:28:01.212Z,57.68
2023-01-18T21:30:03.775Z,57.21
2023-01-18T21:32:06.089Z,57.33
2023-01-18T21:34:08.482Z,57.12
2023-01-18T21:36:16.174Z,57.39
2023-01-18T21:38:19.260Z,57.04
2023-01-18T21:40:21.269Z,57.07
2023-01-18T21:42:42.174Z,57.09
2023-01-18T21:45:02.753Z,57.11
2023-01-18T21:47:04.838Z,57.15
2023-01-18T21:49:07.090Z,57.12
2023-01-18T21:51:28.353Z,56.95
2023-01-18T21:53:48.984Z,57.03
2023-01-18T21:55:52.313Z,56.86
2023-01-18T21:58:13.154Z,57.19
2023-01-18T22:00:15.593Z,57.32
2023-01-18T22:02:17.849Z,57.17
2023-01-18T22:04:38.478Z,57.13
2023-01-18T22:06:40.545Z,57.07
2023-01-18T22:08:42.616Z,57.31
2023-01-18T22:10:47.798Z,55.59
2023-01-18T22:12:49.953Z,56.04
2023-01-18T22:14:51.930Z,56.03
2023-01-18T22:16:54.063Z,55.40
2023-01-18T22:18:56.247Z,55.39
2023-01-18T22:20:58.581Z,55.25
2023-01-18T22:23:00.610Z,54.83
2023-01-18T22:25:02.785Z,55.57
2023-01-18T22:27:05.815Z,56.14
2023-01-18T22:29:08.694Z,55.99
2023-01-18T22:31:10.843Z,56.96
2023-01-18T22:33:13.133Z,57.49
2023-01-18T22:35:15.211Z,58.00
2023-01-18T22:37:17.627Z,58.26
2023-01-18T22:39:19.495Z,58.31
2023-01-18T22:41:25.076Z,58.53
2023-01-18T22:43:27.237Z,58.42
2023-01-18T22:45:30.079Z,58.77
2023-01-18T22:47:32.169Z,60.16
2023-01-18T22:49:34.188Z,59.72
2023-01-18T22:51:38.867Z,61.76
2023-01-18T22:53:40.950Z,61.33
2023-01-18T22:55:45.129Z,62.01
2023-01-18T22:57:48.896Z,63.04
2023-01-18T22:59:50.988Z,62.97
2023-01-18T23:01:53.125Z,63.00
2023-01-18T23:03:57.420Z,63.05
2023-01-18T23:06:00.853Z,63.37
2023-01-18T23:08:04.629Z,63.26
2023-01-18T23:10:06.974Z,63.34
2023-01-18T23:12:10.132Z,64.16
2023-01-18T23:14:30.657Z,64.00
2023-01-18T23:16:51.842Z,64.18
2023-01-18T23:18:53.869Z,64.52
2023-01-18T23:21:00.556Z,64.81
2023-01-18T23:23:02.579Z,64.28
2023-01-18T23:25:05.180Z,64.87
2023-01-18T23:27:12.085Z,65.43
2023-01-18T23:29:14.426Z,64.87
2023-01-18T23:31:18.681Z,65.56
2023-01-18T23:33:22.533Z,65.05
2023-01-18T23:35:24.661Z,64.93
2023-01-18T23:37:27.305Z,65.75
2023-01-18T23:39:47.893Z,65.32
2023-01-18T23:42:08.500Z,66.43
2023-01-18T23:44:29.287Z,65.94
2023-01-18T23:46:50.045Z,66.87
2023-01-18T23:49:10.759Z,66.37
2023-01-18T23:51:31.545Z,66.20
2023-01-18T23:53:52.410Z,66.29
2023-01-18T23:55:54.519Z,66.05
2023-01-18T23:57:56.530Z,67.45
2023-01-18T23:59:58.766Z,66.47
